TimeEDT,TemperatureF,Dew PointF,Humidity,Sea Level PressureIn,VisibilityMPH,Wind Direction,Wind SpeedMPH,Gust SpeedMPH,PrecipitationIn,Events,Conditions,WindDirDegrees,DateUTC
12:53 AM,34.0,16.0,48,29.89,10.0,SSW,4.6,-,N/A,,Clear,200,2013-04-05 04:53:00
1:53 AM,30.9,17.1,57,29.88,10.0,Calm,Calm,-,N/A,,Clear,0,2013-04-05 05:53:00
2:53 AM,34.0,19.0,54,29.86,10.0,South,3.5,-,N/A,,Overcast,170,2013-04-05 06:53:00
3:53 AM,33.1,19.0,56,29.84,10.0,South,4.6,-,N/A,,Overcast,180,2013-04-05 07:53:00
4:53 AM,33.1,19.9,59,29.84,10.0,South,6.9,-,N/A,,Partly Cloudy,170,2013-04-05 08:53:00
5:53 AM,33.1,21.9,64,29.82,10.0,South,4.6,-,N/A,,Clear,170,2013-04-05 09:53:00
6:53 AM,33.1,24.1,70,29.81,10.0,Calm,Calm,-,N/A,,Partly Cloudy,0,2013-04-05 10:53:00
7:53 AM,36.0,25.0,64,29.80,10.0,SSW,5.8,-,N/A,,Clear,200,2013-04-05 11:53:00
8:53 AM,39.0,24.1,55,29.78,10.0,SSW,8.1,-,N/A,,Clear,210,2013-04-05 12:53:00
9:53 AM,44.1,24.1,45,29.75,10.0,South,6.9,-,N/A,,Clear,190,2013-04-05 13:53:00
10:53 AM,48.9,23.0,36,29.72,10.0,Variable,6.9,-,N/A,,Clear,0,2013-04-05 14:53:00
11:53 AM,50.0,23.0,35,29.68,10.0,SSW,11.5,18.4,N/A,,Clear,200,2013-04-05 15:53:00
12:53 PM,52.0,25.0,35,29.67,10.0,Variable,5.8,-,N/A,,Clear,0,2013-04-05 16:53:00
1:53 PM,51.1,23.0,33,29.64,10.0,SW,8.1,-,N/A,,Mostly Cloudy,220,2013-04-05 17:53:00
2:53 PM,48.9,21.0,33,29.63,10.0,NW,11.5,21.9,N/A,,Mostly Cloudy,310,2013-04-05 18:53:00
3:53 PM,46.0,27.0,47,29.64,10.0,NW,10.4,-,N/A,,Overcast,310,2013-04-05 19:53:00
4:53 PM,45.0,28.0,52,29.63,10.0,Variable,3.5,-,N/A,,Overcast,0,2013-04-05 20:53:00
5:53 PM,45.0,27.0,49,29.63,10.0,WNW,6.9,-,N/A,,Overcast,290,2013-04-05 21:53:00
6:53 PM,43.0,24.1,47,29.65,10.0,NW,5.8,-,N/A,,Mostly Cloudy,320,2013-04-05 22:53:00
7:53 PM,39.9,23.0,51,29.66,10.0,NW,5.8,-,N/A,,Partly Cloudy,320,2013-04-05 23:53:00
8:53 PM,37.9,26.1,62,29.69,10.0,NW,8.1,-,N/A,,Scattered Clouds,320,2013-04-06 00:53:00
9:17 PM,37.4,28.4,70,29.68,10.0,North,12.7,18.4,N/A,,Mostly Cloudy,360,2013-04-06 01:17:00
9:53 PM,36.0,28.0,73,29.70,10.0,North,11.5,-,N/A,,Overcast,350,2013-04-06 01:53:00
10:09 PM,35.6,28.4,75,29.68,10.0,NNW,10.4,-,N/A,,Overcast,340,2013-04-06 02:09:00
10:45 PM,33.8,26.6,75,29.68,10.0,NNW,8.1,18.4,N/A,,Overcast,330,2013-04-06 02:45:00
10:53 PM,34.0,26.1,73,29.70,10.0,NNW,8.1,19.6,N/A,,Overcast,340,2013-04-06 02:53:00
11:35 PM,32.0,24.8,75,29.68,10.0,NNW,9.2,18.4,N/A,,Overcast,340,2013-04-06 03:35:00
11:53 PM,32.0,23.0,69,29.70,10.0,NNW,8.1,-,N/A,,Overcast,340,2013-04-06 03:53:00